sensor_id;sensor_type;location;lat;lon;timestamp;P1;durP1;ratioP1;P2;durP2;ratioP2
20000;SDS011;10161;41.188;-8.642;2023-04-24T00:01:33;13.03;;;4.63;;
20000;SDS011;10161;41.188;-8.642;2023-04-24T00:04:02;19.10;;;5.50;;
20000;SDS011;10161;41.188;-8.642;2023-04-24T00:06:30;14.63;;;5.33;;
20000;SDS011;10161;41.188;-8.642;2023-04-24T00:08:59;17.50;;;5.43;;
20000;SDS011;10161;41.188;-8.642;2023-04-24T00:11:27;13.60;;;4.90;;
20000;SDS011;10161;41.188;-8.642;2023-04-24T00:13:55;18.70;;;5.47;;
20000;SDS011;10161;41.188;-8.642;2023-04-24T00:16:23;11.90;;;5.13;;
20000;SDS011;10161;41.188;-8.642;2023-04-24T00:18:50;14.10;;;4.60;;
20000;SDS011;10161;41.188;-8.642;2023-04-24T00:21:21;17.40;;;5.43;;
20000;SDS011;10161;41.188;-8.642;2023-04-24T00:23:52;14.17;;;4.90;;
20000;SDS011;10161;41.188;-8.642;2023-04-24T00:26:19;17.23;;;4.97;;
20000;SDS011;10161;41.188;-8.642;2023-04-24T00:28:46;19.20;;;5.60;;
20000;SDS011;10161;41.188;-8.642;2023-04-24T00:31:13;20.03;;;5.70;;
20000;SDS011;10161;41.188;-8.642;2023-04-24T00:33:40;19.37;;;5.03;;
20000;SDS011;10161;41.188;-8.642;2023-04-24T00:36:07;19.63;;;4.67;;
20000;SDS011;10161;41.188;-8.642;2023-04-24T00:38:34;15.30;;;5.60;;
20000;SDS011;10161;41.188;-8.642;2023-04-24T00:41:03;12.10;;;4.53;;
20000;SDS011;10161;41.188;-8.642;2023-04-24T00:43:30;12.40;;;4.80;;
20000;SDS011;10161;41.188;-8.642;2023-04-24T00:45:57;12.20;;;4.53;;
20000;SDS011;10161;41.188;-8.642;2023-04-24T00:48:24;11.63;;;4.10;;
20000;SDS011;10161;41.188;-8.642;2023-04-24T00:50:51;14.73;;;5.20;;
20000;SDS011;10161;41.188;-8.642;2023-04-24T00:53:19;9.57;;;4.17;;
20000;SDS011;10161;41.188;-8.642;2023-04-24T00:55:46;11.90;;;4.30;;
20000;SDS011;10161;41.188;-8.642;2023-04-24T00:58:14;10.20;;;4.50;;
20000;SDS011;10161;41.188;-8.642;2023-04-24T01:00:41;16.87;;;5.37;;
20000;SDS011;10161;41.188;-8.642;2023-04-24T01:03:08;16.90;;;5.07;;
20000;SDS011;10161;41.188;-8.642;2023-04-24T01:05:36;20.03;;;5.00;;
20000;SDS011;10161;41.188;-8.642;2023-04-24T01:08:03;11.83;;;4.67;;
20000;SDS011;10161;41.188;-8.642;2023-04-24T01:10:30;15.97;;;4.70;;
20000;SDS011;10161;41.188;-8.642;2023-04-24T01:12:58;14.50;;;4.40;;
20000;SDS011;10161;41.188;-8.642;2023-04-24T01:15:26;12.77;;;4.37;;
20000;SDS011;10161;41.188;-8.642;2023-04-24T01:17:53;17.27;;;5.10;;
20000;SDS011;10161;41.188;-8.642;2023-04-24T01:20:21;10.30;;;4.50;;
20000;SDS011;10161;41.188;-8.642;2023-04-24T01:22:49;11.93;;;4.47;;
20000;SDS011;10161;41.188;-8.642;2023-04-24T01:25:17;11.73;;;4.60;;
20000;SDS011;10161;41.188;-8.642;2023-04-24T01:27:44;18.10;;;5.30;;
20000;SDS011;10161;41.188;-8.642;2023-04-24T01:30:11;13.20;;;4.40;;
20000;SDS011;10161;41.188;-8.642;2023-04-24T01:32:39;14.00;;;4.90;;
20000;SDS011;10161;41.188;-8.642;2023-04-24T01:35:07;16.37;;;4.70;;
20000;SDS011;10161;41.188;-8.642;2023-04-24T01:37:34;15.50;;;5.47;;
20000;SDS011;10161;41.188;-8.642;2023-04-24T01:40:04;13.77;;;4.60;;
20000;SDS011;10161;41.188;-8.642;2023-04-24T01:42:32;9.83;;;3.77;;
20000;SDS011;10161;41.188;-8.642;2023-04-24T01:44:59;11.00;;;4.07;;
20000;SDS011;10161;41.188;-8.642;2023-04-24T01:47:27;12.13;;;4.10;;
20000;SDS011;10161;41.188;-8.642;2023-04-24T01:49:54;9.30;;;4.03;;
20000;SDS011;10161;41.188;-8.642;2023-04-24T01:52:21;10.93;;;4.20;;
20000;SDS011;10161;41.188;-8.642;2023-04-24T01:54:48;11.73;;;4.47;;
20000;SDS011;10161;41.188;-8.642;2023-04-24T01:57:16;11.70;;;4.60;;
20000;SDS011;10161;41.188;-8.642;2023-04-24T01:59:43;14.50;;;4.47;;
20000;SDS011;10161;41.188;-8.642;2023-04-24T02:02:10;13.10;;;4.73;;
20000;SDS011;10161;41.188;-8.642;2023-04-24T02:04:37;16.57;;;4.70;;
20000;SDS011;10161;41.188;-8.642;2023-04-24T02:07:04;22.50;;;5.30;;
20000;SDS011;10161;41.188;-8.642;2023-04-24T02:09:31;20.83;;;5.27;;
20000;SDS011;10161;41.188;-8.642;2023-04-24T02:11:58;11.23;;;4.10;;
20000;SDS011;10161;41.188;-8.642;2023-04-24T02:14:27;15.17;;;4.60;;
20000;SDS011;10161;41.188;-8.642;2023-04-24T02:16:54;12.80;;;4.27;;
20000;SDS011;10161;41.188;-8.642;2023-04-24T02:19:21;12.50;;;4.30;;
20000;SDS011;10161;41.188;-8.642;2023-04-24T02:21:48;14.30;;;4.60;;
20000;SDS011;10161;41.188;-8.642;2023-04-24T02:24:16;12.60;;;4.20;;
20000;SDS011;10161;41.188;-8.642;2023-04-24T02:26:43;13.83;;;4.30;;
20000;SDS011;10161;41.188;-8.642;2023-04-24T02:29:10;17.37;;;4.80;;
20000;SDS011;10161;41.188;-8.642;2023-04-24T02:31:38;12.37;;;4.13;;
20000;SDS011;10161;41.188;-8.642;2023-04-24T02:34:06;13.50;;;4.70;;
20000;SDS011;10161;41.188;-8.642;2023-04-24T02:36:35;9.27;;;4.13;;
20000;SDS011;10161;41.188;-8.642;2023-04-24T02:39:02;10.73;;;3.50;;
20000;SDS011;10161;41.188;-8.642;2023-04-24T02:41:30;16.70;;;5.37;;
20000;SDS011;10161;41.188;-8.642;2023-04-24T02:43:57;13.73;;;4.60;;
20000;SDS011;10161;41.188;-8.642;2023-04-24T02:46:25;17.73;;;4.07;;
20000;SDS011;10161;41.188;-8.642;2023-04-24T02:48:53;15.60;;;5.23;;
20000;SDS011;10161;41.188;-8.642;2023-04-24T02:51:20;12.17;;;4.73;;
20000;SDS011;10161;41.188;-8.642;2023-04-24T02:53:48;9.77;;;4.10;;
20000;SDS011;10161;41.188;-8.642;2023-04-24T02:56:14;11.77;;;4.03;;
20000;SDS011;10161;41.188;-8.642;2023-04-24T02:58:41;10.83;;;4.33;;
20000;SDS011;10161;41.188;-8.642;2023-04-24T03:01:08;12.00;;;4.20;;
20000;SDS011;10161;41.188;-8.642;2023-04-24T03:03:35;11.67;;;3.87;;
20000;SDS011;10161;41.188;-8.642;2023-04-24T03:06:04;14.43;;;4.40;;
20000;SDS011;10161;41.188;-8.642;2023-04-24T03:08:33;13.20;;;4.30;;
20000;SDS011;10161;41.188;-8.642;2023-04-24T03:11:00;14.20;;;5.03;;
20000;SDS011;10161;41.188;-8.642;2023-04-24T03:13:27;15.70;;;4.00;;
20000;SDS011;10161;41.188;-8.642;2023-04-24T03:15:54;13.93;;;4.13;;
20000;SDS011;10161;41.188;-8.642;2023-04-24T03:18:22;11.60;;;5.07;;
20000;SDS011;10161;41.188;-8.642;2023-04-24T03:20:49;10.23;;;4.23;;
20000;SDS011;10161;41.188;-8.642;2023-04-24T03:23:17;13.70;;;4.37;;
20000;SDS011;10161;41.188;-8.642;2023-04-24T03:25:44;10.37;;;4.90;;
20000;SDS011;10161;41.188;-8.642;2023-04-24T03:28:13;11.30;;;4.67;;
20000;SDS011;10161;41.188;-8.642;2023-04-24T03:30:40;15.10;;;5.20;;
20000;SDS011;10161;41.188;-8.642;2023-04-24T03:33:07;12.27;;;4.90;;
20000;SDS011;10161;41.188;-8.642;2023-04-24T03:35:34;12.33;;;4.80;;
20000;SDS011;10161;41.188;-8.642;2023-04-24T03:38:02;15.53;;;4.47;;
20000;SDS011;10161;41.188;-8.642;2023-04-24T03:40:31;17.03;;;5.17;;
20000;SDS011;10161;41.188;-8.642;2023-04-24T03:42:58;14.33;;;4.90;;
20000;SDS011;10161;41.188;-8.642;2023-04-24T03:45:25;11.17;;;4.27;;
20000;SDS011;10161;41.188;-8.642;2023-04-24T03:47:52;13.83;;;4.90;;
20000;SDS011;10161;41.188;-8.642;2023-04-24T03:50:19;13.60;;;3.77;;
20000;SDS011;10161;41.188;-8.642;2023-04-24T03:52:46;10.60;;;4.27;;
20000;SDS011;10161;41.188;-8.642;2023-04-24T03:55:13;7.20;;;3.60;;
20000;SDS011;10161;41.188;-8.642;2023-04-24T03:57:42;7.47;;;3.30;;
20000;SDS011;10161;41.188;-8.642;2023-04-24T04:00:10;6.80;;;2.97;;
20000;SDS011;10161;41.188;-8.642;2023-04-24T04:02:38;6.53;;;3.00;;
20000;SDS011;10161;41.188;-8.642;2023-04-24T04:05:05;6.23;;;3.03;;
20000;SDS011;10161;41.188;-8.642;2023-04-24T04:07:33;6.97;;;3.30;;
20000;SDS011;10161;41.188;-8.642;2023-04-24T04:10:00;7.80;;;3.23;;
20000;SDS011;10161;41.188;-8.642;2023-04-24T04:12:27;7.87;;;3.30;;
20000;SDS011;10161;41.188;-8.642;2023-04-24T04:14:55;9.47;;;3.47;;
20000;SDS011;10161;41.188;-8.642;2023-04-24T04:17:22;6.07;;;3.20;;
20000;SDS011;10161;41.188;-8.642;2023-04-24T04:19:49;8.83;;;3.23;;
20000;SDS011;10161;41.188;-8.642;2023-04-24T04:22:16;8.30;;;3.13;;
20000;SDS011;10161;41.188;-8.642;2023-04-24T04:24:43;6.60;;;3.03;;
20000;SDS011;10161;41.188;-8.642;2023-04-24T04:27:11;7.27;;;3.43;;
20000;SDS011;10161;41.188;-8.642;2023-04-24T04:29:38;9.73;;;4.40;;
20000;SDS011;10161;41.188;-8.642;2023-04-24T04:32:06;6.33;;;3.10;;
20000;SDS011;10161;41.188;-8.642;2023-04-24T04:34:33;7.03;;;2.63;;
20000;SDS011;10161;41.188;-8.642;2023-04-24T04:37:02;7.90;;;3.20;;
20000;SDS011;10161;41.188;-8.642;2023-04-24T04:39:29;5.80;;;3.13;;
20000;SDS011;10161;41.188;-8.642;2023-04-24T04:41:56;6.97;;;3.63;;
20000;SDS011;10161;41.188;-8.642;2023-04-24T04:44:23;5.23;;;3.20;;
20000;SDS011;10161;41.188;-8.642;2023-04-24T04:46:52;4.50;;;2.80;;
20000;SDS011;10161;41.188;-8.642;2023-04-24T04:49:22;6.10;;;2.87;;
20000;SDS011;10161;41.188;-8.642;2023-04-24T04:51:50;5.93;;;2.80;;
20000;SDS011;10161;41.188;-8.642;2023-04-24T04:54:17;7.70;;;3.10;;
20000;SDS011;10161;41.188;-8.642;2023-04-24T04:56:44;6.03;;;2.70;;
20000;SDS011;10161;41.188;-8.642;2023-04-24T04:59:11;6.33;;;3.23;;
20000;SDS011;10161;41.188;-8.642;2023-04-24T05:01:38;6.27;;;3.17;;
20000;SDS011;10161;41.188;-8.642;2023-04-24T05:04:05;9.43;;;3.57;;
20000;SDS011;10161;41.188;-8.642;2023-04-24T05:06:34;5.90;;;2.93;;
20000;SDS011;10161;41.188;-8.642;2023-04-24T05:09:01;7.30;;;2.90;;
20000;SDS011;10161;41.188;-8.642;2023-04-24T05:11:29;5.20;;;2.30;;
20000;SDS011;10161;41.188;-8.642;2023-04-24T05:13:56;6.90;;;2.97;;
20000;SDS011;10161;41.188;-8.642;2023-04-24T05:16:23;4.30;;;2.70;;
20000;SDS011;10161;41.188;-8.642;2023-04-24T05:18:50;5.07;;;3.20;;
20000;SDS011;10161;41.188;-8.642;2023-04-24T05:21:17;6.10;;;2.60;;
20000;SDS011;10161;41.188;-8.642;2023-04-24T05:23:45;7.50;;;3.87;;
20000;SDS011;10161;41.188;-8.642;2023-04-24T05:26:13;8.17;;;2.97;;
20000;SDS011;10161;41.188;-8.642;2023-04-24T05:28:40;6.00;;;2.33;;
20000;SDS011;10161;41.188;-8.642;2023-04-24T05:31:07;5.77;;;3.00;;
20000;SDS011;10161;41.188;-8.642;2023-04-24T05:33:34;5.07;;;3.10;;
20000;SDS011;10161;41.188;-8.642;2023-04-24T05:36:01;7.40;;;3.07;;
20000;SDS011;10161;41.188;-8.642;2023-04-24T05:38:29;7.60;;;3.50;;
20000;SDS011;10161;41.188;-8.642;2023-04-24T05:40:57;9.00;;;3.60;;
20000;SDS011;10161;41.188;-8.642;2023-04-24T05:43:24;5.33;;;2.97;;
20000;SDS011;10161;41.188;-8.642;2023-04-24T05:45:52;10.27;;;4.20;;
20000;SDS011;10161;41.188;-8.642;2023-04-24T05:48:19;9.10;;;3.50;;
20000;SDS011;10161;41.188;-8.642;2023-04-24T05:50:47;8.87;;;3.30;;
20000;SDS011;10161;41.188;-8.642;2023-04-24T05:53:14;6.67;;;3.30;;
20000;SDS011;10161;41.188;-8.642;2023-04-24T05:55:41;7.93;;;3.30;;
20000;SDS011;10161;41.188;-8.642;2023-04-24T05:58:09;6.20;;;3.20;;
20000;SDS011;10161;41.188;-8.642;2023-04-24T06:00:36;9.80;;;3.97;;
20000;SDS011;10161;41.188;-8.642;2023-04-24T06:03:05;9.23;;;3.43;;
20000;SDS011;10161;41.188;-8.642;2023-04-24T06:05:31;5.10;;;3.10;;
20000;SDS011;10161;41.188;-8.642;2023-04-24T06:07:58;5.07;;;2.80;;
20000;SDS011;10161;41.188;-8.642;2023-04-24T06:10:25;5.27;;;2.83;;
20000;SDS011;10161;41.188;-8.642;2023-04-24T06:12:52;6.67;;;3.13;;
20000;SDS011;10161;41.188;-8.642;2023-04-24T06:15:22;5.53;;;2.63;;
20000;SDS011;10161;41.188;-8.642;2023-04-24T06:17:49;5.70;;;2.70;;
20000;SDS011;10161;41.188;-8.642;2023-04-24T06:20:16;3.43;;;2.90;;
20000;SDS011;10161;41.188;-8.642;2023-04-24T06:22:43;5.57;;;2.50;;
20000;SDS011;10161;41.188;-8.642;2023-04-24T06:25:10;5.93;;;2.90;;
20000;SDS011;10161;41.188;-8.642;2023-04-24T06:27:37;5.03;;;2.90;;
20000;SDS011;10161;41.188;-8.642;2023-04-24T06:30:05;5.27;;;2.93;;
20000;SDS011;10161;41.188;-8.642;2023-04-24T06:32:34;5.47;;;2.70;;
20000;SDS011;10161;41.188;-8.642;2023-04-24T06:35:01;5.87;;;2.57;;
20000;SDS011;10161;41.188;-8.642;2023-04-24T06:37:28;8.20;;;3.50;;
20000;SDS011;10161;41.188;-8.642;2023-04-24T06:39:55;5.30;;;2.67;;
20000;SDS011;10161;41.188;-8.642;2023-04-24T06:42:22;11.10;;;3.20;;
20000;SDS011;10161;41.188;-8.642;2023-04-24T06:44:50;7.50;;;3.00;;
20000;SDS011;10161;41.188;-8.642;2023-04-24T06:47:16;8.40;;;3.40;;
20000;SDS011;10161;41.188;-8.642;2023-04-24T06:49:45;5.30;;;3.07;;
20000;SDS011;10161;41.188;-8.642;2023-04-24T06:52:13;8.80;;;3.13;;
20000;SDS011;10161;41.188;-8.642;2023-04-24T06:54:41;9.83;;;3.37;;
20000;SDS011;10161;41.188;-8.642;2023-04-24T06:57:08;5.20;;;3.40;;
20000;SDS011;10161;41.188;-8.642;2023-04-24T06:59:35;6.80;;;3.20;;
20000;SDS011;10161;41.188;-8.642;2023-04-24T07:02:02;6.27;;;3.30;;
20000;SDS011;10161;41.188;-8.642;2023-04-24T07:04:30;4.10;;;2.90;;
20000;SDS011;10161;41.188;-8.642;2023-04-24T07:06:59;5.77;;;2.43;;
20000;SDS011;10161;41.188;-8.642;2023-04-24T07:09:27;6.40;;;3.37;;
20000;SDS011;10161;41.188;-8.642;2023-04-24T07:11:55;7.27;;;3.63;;
20000;SDS011;10161;41.188;-8.642;2023-04-24T07:14:22;6.37;;;3.50;;
20000;SDS011;10161;41.188;-8.642;2023-04-24T07:16:49;6.43;;;3.27;;
20000;SDS011;10161;41.188;-8.642;2023-04-24T07:19:16;6.27;;;3.30;;
20000;SDS011;10161;41.188;-8.642;2023-04-24T07:21:43;8.23;;;3.03;;
20000;SDS011;10161;41.188;-8.642;2023-04-24T07:24:12;10.20;;;3.20;;
20000;SDS011;10161;41.188;-8.642;2023-04-24T07:26:39;6.47;;;3.13;;
20000;SDS011;10161;41.188;-8.642;2023-04-24T07:29:06;4.43;;;2.67;;
20000;SDS011;10161;41.188;-8.642;2023-04-24T07:31:33;5.90;;;2.73;;
20000;SDS011;10161;41.188;-8.642;2023-04-24T07:34:00;5.50;;;2.87;;
20000;SDS011;10161;41.188;-8.642;2023-04-24T07:36:27;4.57;;;2.87;;
20000;SDS011;10161;41.188;-8.642;2023-04-24T07:38:54;9.13;;;3.13;;
20000;SDS011;10161;41.188;-8.642;2023-04-24T07:41:24;7.13;;;2.80;;
20000;SDS011;10161;41.188;-8.642;2023-04-24T07:43:53;4.83;;;2.67;;
20000;SDS011;10161;41.188;-8.642;2023-04-24T07:46:20;4.07;;;2.70;;
20000;SDS011;10161;41.188;-8.642;2023-04-24T07:48:48;7.60;;;3.20;;
20000;SDS011;10161;41.188;-8.642;2023-04-24T07:51:15;6.10;;;2.93;;
20000;SDS011;10161;41.188;-8.642;2023-04-24T07:53:42;5.80;;;2.47;;
20000;SDS011;10161;41.188;-8.642;2023-04-24T07:56:09;7.53;;;2.50;;
20000;SDS011;10161;41.188;-8.642;2023-04-24T07:58:38;3.43;;;2.10;;
20000;SDS011;10161;41.188;-8.642;2023-04-24T08:01:05;3.20;;;1.90;;
20000;SDS011;10161;41.188;-8.642;2023-04-24T08:03:32;4.70;;;2.70;;
20000;SDS011;10161;41.188;-8.642;2023-04-24T08:06:00;4.60;;;2.30;;
20000;SDS011;10161;41.188;-8.642;2023-04-24T08:08:27;6.20;;;2.53;;
20000;SDS011;10161;41.188;-8.642;2023-04-24T08:10:54;5.60;;;2.40;;
20000;SDS011;10161;41.188;-8.642;2023-04-24T08:13:21;8.23;;;2.90;;
20000;SDS011;10161;41.188;-8.642;2023-04-24T08:15:49;6.03;;;2.97;;
20000;SDS011;10161;41.188;-8.642;2023-04-24T08:18:17;3.30;;;2.40;;
20000;SDS011;10161;41.188;-8.642;2023-04-24T08:20:44;5.80;;;2.70;;
20000;SDS011;10161;41.188;-8.642;2023-04-24T08:23:11;3.47;;;2.20;;
20000;SDS011;10161;41.188;-8.642;2023-04-24T08:25:38;4.10;;;2.63;;
20000;SDS011;10161;41.188;-8.642;2023-04-24T08:28:05;10.13;;;2.90;;
20000;SDS011;10161;41.188;-8.642;2023-04-24T08:30:33;6.70;;;2.73;;
20000;SDS011;10161;41.188;-8.642;2023-04-24T08:33:01;4.57;;;2.57;;
20000;SDS011;10161;41.188;-8.642;2023-04-24T08:35:29;6.00;;;2.50;;
20000;SDS011;10161;41.188;-8.642;2023-04-24T08:37:56;4.93;;;2.23;;
20000;SDS011;10161;41.188;-8.642;2023-04-24T08:40:28;5.60;;;2.27;;
20000;SDS011;10161;41.188;-8.642;2023-04-24T08:42:56;3.53;;;2.30;;
20000;SDS011;10161;41.188;-8.642;2023-04-24T08:45:23;4.13;;;2.40;;
20000;SDS011;10161;41.188;-8.642;2023-04-24T08:47:51;4.33;;;2.10;;
20000;SDS011;10161;41.188;-8.642;2023-04-24T08:50:21;4.23;;;2.53;;
20000;SDS011;10161;41.188;-8.642;2023-04-24T08:52:50;5.57;;;2.90;;
20000;SDS011;10161;41.188;-8.642;2023-04-24T08:55:18;5.77;;;2.73;;
20000;SDS011;10161;41.188;-8.642;2023-04-24T08:57:50;7.47;;;2.70;;
20000;SDS011;10161;41.188;-8.642;2023-04-24T09:00:19;6.03;;;2.73;;
20000;SDS011;10161;41.188;-8.642;2023-04-24T09:02:47;3.53;;;2.47;;
20000;SDS011;10161;41.188;-8.642;2023-04-24T09:05:16;5.10;;;2.10;;
20000;SDS011;10161;41.188;-8.642;2023-04-24T09:07:47;2.60;;;1.90;;
20000;SDS011;10161;41.188;-8.642;2023-04-24T09:10:16;3.70;;;2.60;;
20000;SDS011;10161;41.188;-8.642;2023-04-24T09:12:43;8.80;;;3.03;;
20000;SDS011;10161;41.188;-8.642;2023-04-24T09:15:10;6.00;;;3.00;;
20000;SDS011;10161;41.188;-8.642;2023-04-24T09:17:38;6.07;;;2.87;;
20000;SDS011;10161;41.188;-8.642;2023-04-24T09:20:06;4.40;;;2.37;;
20000;SDS011;10161;41.188;-8.642;2023-04-24T09:22:34;6.73;;;2.93;;
20000;SDS011;10161;41.188;-8.642;2023-04-24T09:25:03;9.30;;;3.23;;
20000;SDS011;10161;41.188;-8.642;2023-04-24T09:27:31;5.67;;;2.70;;
20000;SDS011;10161;41.188;-8.642;2023-04-24T09:29:59;4.83;;;2.50;;
20000;SDS011;10161;41.188;-8.642;2023-04-24T09:32:28;8.23;;;2.80;;
20000;SDS011;10161;41.188;-8.642;2023-04-24T09:35:06;5.33;;;2.60;;
20000;SDS011;10161;41.188;-8.642;2023-04-24T09:37:35;9.67;;;2.93;;
20000;SDS011;10161;41.188;-8.642;2023-04-24T09:40:14;8.90;;;2.80;;
20000;SDS011;10161;41.188;-8.642;2023-04-24T09:42:45;7.87;;;2.70;;
20000;SDS011;10161;41.188;-8.642;2023-04-24T09:45:13;4.93;;;2.27;;
20000;SDS011;10161;41.188;-8.642;2023-04-24T09:47:40;4.27;;;2.20;;
20000;SDS011;10161;41.188;-8.642;2023-04-24T09:50:12;6.53;;;2.50;;
20000;SDS011;10161;41.188;-8.642;2023-04-24T09:52:41;6.57;;;2.67;;
20000;SDS011;10161;41.188;-8.642;2023-04-24T09:55:15;6.70;;;2.60;;
20000;SDS011;10161;41.188;-8.642;2023-04-24T09:57:47;6.20;;;2.90;;
20000;SDS011;10161;41.188;-8.642;2023-04-24T10:00:17;7.80;;;2.60;;
20000;SDS011;10161;41.188;-8.642;2023-04-24T10:02:49;6.73;;;2.50;;
20000;SDS011;10161;41.188;-8.642;2023-04-24T10:05:17;8.37;;;2.50;;
20000;SDS011;10161;41.188;-8.642;2023-04-24T10:07:44;9.10;;;2.40;;
20000;SDS011;10161;41.188;-8.642;2023-04-24T10:10:11;4.93;;;2.43;;
20000;SDS011;10161;41.188;-8.642;2023-04-24T10:12:40;8.60;;;2.60;;
20000;SDS011;10161;41.188;-8.642;2023-04-24T10:15:09;6.90;;;2.57;;
20000;SDS011;10161;41.188;-8.642;2023-04-24T10:17:39;5.23;;;3.03;;
20000;SDS011;10161;41.188;-8.642;2023-04-24T10:20:06;7.83;;;2.93;;
20000;SDS011;10161;41.188;-8.642;2023-04-24T10:22:34;4.13;;;2.60;;
20000;SDS011;10161;41.188;-8.642;2023-04-24T10:25:03;3.80;;;2.70;;
20000;SDS011;10161;41.188;-8.642;2023-04-24T10:27:31;8.83;;;2.60;;
20000;SDS011;10161;41.188;-8.642;2023-04-24T10:30:00;5.63;;;2.40;;
20000;SDS011;10161;41.188;-8.642;2023-04-24T10:32:28;7.23;;;3.23;;
20000;SDS011;10161;41.188;-8.642;2023-04-24T10:34:56;4.10;;;2.50;;
20000;SDS011;10161;41.188;-8.642;2023-04-24T10:37:23;5.97;;;2.47;;
20000;SDS011;10161;41.188;-8.642;2023-04-24T10:39:51;10.20;;;3.20;;
20000;SDS011;10161;41.188;-8.642;2023-04-24T10:42:19;6.23;;;2.93;;
20000;SDS011;10161;41.188;-8.642;2023-04-24T10:44:47;5.63;;;2.37;;
20000;SDS011;10161;41.188;-8.642;2023-04-24T10:47:16;6.03;;;2.53;;
20000;SDS011;10161;41.188;-8.642;2023-04-24T10:49:43;5.60;;;2.43;;
20000;SDS011;10161;41.188;-8.642;2023-04-24T10:52:11;6.13;;;2.77;;
20000;SDS011;10161;41.188;-8.642;2023-04-24T10:54:41;5.13;;;2.30;;
20000;SDS011;10161;41.188;-8.642;2023-04-24T11:00:21;7.57;;;2.90;;
20000;SDS011;10161;41.188;-8.642;2023-04-24T11:02:50;8.77;;;2.80;;
20000;SDS011;10161;41.188;-8.642;2023-04-24T11:05:21;5.60;;;2.57;;
20000;SDS011;10161;41.188;-8.642;2023-04-24T11:10:38;7.20;;;2.83;;
20000;SDS011;10161;41.188;-8.642;2023-04-24T11:13:06;7.40;;;2.80;;
20000;SDS011;10161;41.188;-8.642;2023-04-24T11:15:34;4.80;;;2.23;;
20000;SDS011;10161;41.188;-8.642;2023-04-24T11:18:04;5.80;;;2.47;;
20000;SDS011;10161;41.188;-8.642;2023-04-24T11:20:31;4.70;;;2.83;;
20000;SDS011;10161;41.188;-8.642;2023-04-24T11:23:03;8.87;;;3.23;;
20000;SDS011;10161;41.188;-8.642;2023-04-24T11:25:31;5.03;;;2.30;;
20000;SDS011;10161;41.188;-8.642;2023-04-24T11:28:03;4.73;;;2.60;;
20000;SDS011;10161;41.188;-8.642;2023-04-24T11:30:30;8.87;;;2.80;;
20000;SDS011;10161;41.188;-8.642;2023-04-24T11:33:01;9.90;;;2.77;;
20000;SDS011;10161;41.188;-8.642;2023-04-24T11:35:30;7.47;;;2.60;;
20000;SDS011;10161;41.188;-8.642;2023-04-24T11:38:02;4.43;;;2.37;;
20000;SDS011;10161;41.188;-8.642;2023-04-24T11:40:30;3.93;;;2.20;;
20000;SDS011;10161;41.188;-8.642;2023-04-24T11:42:59;5.07;;;2.53;;
20000;SDS011;10161;41.188;-8.642;2023-04-24T11:45:28;5.30;;;2.63;;
20000;SDS011;10161;41.188;-8.642;2023-04-24T11:47:56;6.93;;;2.37;;
20000;SDS011;10161;41.188;-8.642;2023-04-24T11:50:29;4.70;;;2.40;;
20000;SDS011;10161;41.188;-8.642;2023-04-24T11:52:56;4.37;;;2.50;;
20000;SDS011;10161;41.188;-8.642;2023-04-24T11:55:24;4.27;;;2.30;;
20000;SDS011;10161;41.188;-8.642;2023-04-24T11:57:53;5.83;;;2.00;;
20000;SDS011;10161;41.188;-8.642;2023-04-24T12:00:23;6.40;;;2.30;;
20000;SDS011;10161;41.188;-8.642;2023-04-24T12:02:51;7.70;;;2.87;;
20000;SDS011;10161;41.188;-8.642;2023-04-24T12:05:30;6.30;;;2.57;;
20000;SDS011;10161;41.188;-8.642;2023-04-24T12:07:57;7.30;;;2.57;;
20000;SDS011;10161;41.188;-8.642;2023-04-24T12:10:25;5.70;;;2.27;;
20000;SDS011;10161;41.188;-8.642;2023-04-24T12:12:54;7.10;;;2.40;;
20000;SDS011;10161;41.188;-8.642;2023-04-24T12:15:25;9.83;;;1.97;;
20000;SDS011;10161;41.188;-8.642;2023-04-24T12:17:53;4.30;;;2.10;;
20000;SDS011;10161;41.188;-8.642;2023-04-24T12:20:23;4.73;;;1.60;;
20000;SDS011;10161;41.188;-8.642;2023-04-24T12:22:53;4.83;;;2.30;;
20000;SDS011;10161;41.188;-8.642;2023-04-24T12:25:21;4.20;;;2.03;;
20000;SDS011;10161;41.188;-8.642;2023-04-24T12:27:52;3.63;;;2.00;;
20000;SDS011;10161;41.188;-8.642;2023-04-24T12:30:20;4.00;;;2.00;;
20000;SDS011;10161;41.188;-8.642;2023-04-24T12:32:48;5.83;;;2.10;;
20000;SDS011;10161;41.188;-8.642;2023-04-24T12:35:18;3.70;;;2.00;;
20000;SDS011;10161;41.188;-8.642;2023-04-24T12:37:46;3.77;;;2.10;;
20000;SDS011;10161;41.188;-8.642;2023-04-24T12:40:17;5.87;;;2.40;;
20000;SDS011;10161;41.188;-8.642;2023-04-24T12:42:44;3.47;;;1.90;;
20000;SDS011;10161;41.188;-8.642;2023-04-24T12:45:12;8.37;;;2.80;;
20000;SDS011;10161;41.188;-8.642;2023-04-24T12:47:40;8.23;;;2.10;;
20000;SDS011;10161;41.188;-8.642;2023-04-24T12:50:08;5.20;;;2.20;;
20000;SDS011;10161;41.188;-8.642;2023-04-24T12:52:35;4.33;;;1.80;;
20000;SDS011;10161;41.188;-8.642;2023-04-24T12:55:04;6.63;;;2.40;;
20000;SDS011;10161;41.188;-8.642;2023-04-24T12:57:34;4.63;;;2.40;;
20000;SDS011;10161;41.188;-8.642;2023-04-24T13:00:02;3.40;;;1.90;;
20000;SDS011;10161;41.188;-8.642;2023-04-24T13:02:31;5.87;;;2.00;;
20000;SDS011;10161;41.188;-8.642;2023-04-24T13:04:59;4.60;;;1.87;;
20000;SDS011;10161;41.188;-8.642;2023-04-24T13:07:26;9.60;;;2.23;;
20000;SDS011;10161;41.188;-8.642;2023-04-24T13:09:54;7.57;;;2.10;;
20000;SDS011;10161;41.188;-8.642;2023-04-24T13:12:22;4.63;;;2.00;;
20000;SDS011;10161;41.188;-8.642;2023-04-24T13:14:52;3.20;;;1.70;;
20000;SDS011;10161;41.188;-8.642;2023-04-24T13:17:19;7.73;;;2.33;;
20000;SDS011;10161;41.188;-8.642;2023-04-24T13:19:49;4.70;;;1.90;;
20000;SDS011;10161;41.188;-8.642;2023-04-24T13:22:17;4.70;;;2.73;;
20000;SDS011;10161;41.188;-8.642;2023-04-24T13:24:44;4.80;;;1.73;;
20000;SDS011;10161;41.188;-8.642;2023-04-24T13:27:13;3.93;;;1.53;;
20000;SDS011;10161;41.188;-8.642;2023-04-24T13:29:41;7.70;;;2.50;;
20000;SDS011;10161;41.188;-8.642;2023-04-24T13:32:10;4.33;;;2.00;;
20000;SDS011;10161;41.188;-8.642;2023-04-24T13:34:37;4.50;;;2.27;;
20000;SDS011;10161;41.188;-8.642;2023-04-24T13:37:04;5.83;;;2.70;;
20000;SDS011;10161;41.188;-8.642;2023-04-24T13:39:31;5.93;;;2.50;;
20000;SDS011;10161;41.188;-8.642;2023-04-24T13:41:58;4.17;;;2.03;;
20000;SDS011;10161;41.188;-8.642;2023-04-24T13:44:26;4.60;;;2.47;;
20000;SDS011;10161;41.188;-8.642;2023-04-24T13:46:53;3.40;;;2.13;;
20000;SDS011;10161;41.188;-8.642;2023-04-24T13:49:23;3.73;;;1.90;;
20000;SDS011;10161;41.188;-8.642;2023-04-24T13:51:51;6.67;;;2.33;;
20000;SDS011;10161;41.188;-8.642;2023-04-24T13:54:18;3.00;;;1.90;;
20000;SDS011;10161;41.188;-8.642;2023-04-24T13:56:46;5.87;;;2.40;;
20000;SDS011;10161;41.188;-8.642;2023-04-24T13:59:13;3.67;;;1.90;;
20000;SDS011;10161;41.188;-8.642;2023-04-24T14:01:40;4.13;;;2.17;;
20000;SDS011;10161;41.188;-8.642;2023-04-24T14:04:07;3.30;;;1.90;;
20000;SDS011;10161;41.188;-8.642;2023-04-24T14:06:36;6.60;;;2.27;;
20000;SDS011;10161;41.188;-8.642;2023-04-24T14:09:03;4.57;;;2.30;;
20000;SDS011;10161;41.188;-8.642;2023-04-24T14:11:30;4.43;;;2.03;;
20000;SDS011;10161;41.188;-8.642;2023-04-24T14:13:57;4.63;;;2.20;;
20000;SDS011;10161;41.188;-8.642;2023-04-24T14:16:24;5.30;;;2.30;;
20000;SDS011;10161;41.188;-8.642;2023-04-24T14:18:51;2.73;;;1.80;;
20000;SDS011;10161;41.188;-8.642;2023-04-24T14:21:18;4.87;;;2.43;;
20000;SDS011;10161;41.188;-8.642;2023-04-24T14:23:48;3.87;;;2.00;;
20000;SDS011;10161;41.188;-8.642;2023-04-24T14:26:16;5.77;;;2.20;;
20000;SDS011;10161;41.188;-8.642;2023-04-24T14:28:43;7.87;;;2.20;;
20000;SDS011;10161;41.188;-8.642;2023-04-24T14:31:10;7.70;;;2.50;;
20000;SDS011;10161;41.188;-8.642;2023-04-24T14:33:37;4.63;;;2.13;;
20000;SDS011;10161;41.188;-8.642;2023-04-24T14:36:04;4.13;;;1.83;;
20000;SDS011;10161;41.188;-8.642;2023-04-24T14:38:31;3.17;;;2.20;;
20000;SDS011;10161;41.188;-8.642;2023-04-24T14:41:00;4.40;;;2.00;;